sensor_id;sensor_type;location;lat;lon;timestamp;P1;durP1;ratioP1;P2;durP2;ratioP2
26038;SDS011;13815;52.374;4.882;2022-08-25T00:01:39;3.42;;;0.52;;
26038;SDS011;13815;52.374;4.882;2022-08-25T00:04:11;3.30;;;0.50;;
26038;SDS011;13815;52.374;4.882;2022-08-25T00:06:38;0.20;;;0.20;;
26038;SDS011;13815;52.374;4.882;2022-08-25T00:09:04;5.53;;;0.63;;
26038;SDS011;13815;52.374;4.882;2022-08-25T00:11:30;4.13;;;0.30;;
26038;SDS011;13815;52.374;4.882;2022-08-25T00:13:58;3.53;;;0.22;;
26038;SDS011;13815;52.374;4.882;2022-08-25T00:16:26;0.00;;;0.00;;
26038;SDS011;13815;52.374;4.882;2022-08-25T00:18:53;0.00;;;0.00;;
26038;SDS011;13815;52.374;4.882;2022-08-25T00:21:21;0.00;;;0.00;;
26038;SDS011;13815;52.374;4.882;2022-08-25T00:23:47;1.65;;;0.20;;
26038;SDS011;13815;52.374;4.882;2022-08-25T00:26:13;0.00;;;0.00;;
26038;SDS011;13815;52.374;4.882;2022-08-25T00:28:40;0.00;;;0.00;;
26038;SDS011;13815;52.374;4.882;2022-08-25T00:31:09;0.00;;;0.00;;
26038;SDS011;13815;52.374;4.882;2022-08-25T00:33:35;0.00;;;0.00;;
26038;SDS011;13815;52.374;4.882;2022-08-25T00:36:00;2.50;;;0.25;;
26038;SDS011;13815;52.374;4.882;2022-08-25T00:38:26;2.65;;;0.20;;
26038;SDS011;13815;52.374;4.882;2022-08-25T00:40:52;0.00;;;0.00;;
26038;SDS011;13815;52.374;4.882;2022-08-25T00:46:17;0.00;;;0.00;;
26038;SDS011;13815;52.374;4.882;2022-08-25T00:48:46;3.78;;;0.28;;
26038;SDS011;13815;52.374;4.882;2022-08-25T00:51:16;2.05;;;0.20;;
26038;SDS011;13815;52.374;4.882;2022-08-25T00:53:45;2.42;;;0.25;;
26038;SDS011;13815;52.374;4.882;2022-08-25T00:56:11;2.65;;;0.20;;
26038;SDS011;13815;52.374;4.882;2022-08-25T00:58:38;1.48;;;0.10;;
26038;SDS011;13815;52.374;4.882;2022-08-25T01:01:05;2.90;;;0.30;;
26038;SDS011;13815;52.374;4.882;2022-08-25T01:03:32;0.28;;;0.05;;
26038;SDS011;13815;52.374;4.882;2022-08-25T01:05:58;3.47;;;0.32;;
26038;SDS011;13815;52.374;4.882;2022-08-25T01:08:25;5.15;;;0.40;;
26038;SDS011;13815;52.374;4.882;2022-08-25T01:10:53;0.00;;;0.00;;
26038;SDS011;13815;52.374;4.882;2022-08-25T01:13:20;6.13;;;0.63;;
26038;SDS011;13815;52.374;4.882;2022-08-25T01:15:51;3.13;;;0.30;;
26038;SDS011;13815;52.374;4.882;2022-08-25T01:18:18;1.80;;;0.15;;
26038;SDS011;13815;52.374;4.882;2022-08-25T01:20:47;4.85;;;0.65;;
26038;SDS011;13815;52.374;4.882;2022-08-25T01:23:16;0.68;;;0.68;;
26038;SDS011;13815;52.374;4.882;2022-08-25T01:28:26;0.20;;;0.13;;
26038;SDS011;13815;52.374;4.882;2022-08-25T01:30:51;1.13;;;0.35;;
26038;SDS011;13815;52.374;4.882;2022-08-25T01:33:18;4.38;;;0.52;;
26038;SDS011;13815;52.374;4.882;2022-08-25T01:35:44;0.60;;;0.40;;
26038;SDS011;13815;52.374;4.882;2022-08-25T01:38:11;10.60;;;0.95;;
26038;SDS011;13815;52.374;4.882;2022-08-25T01:40:38;3.90;;;0.50;;
26038;SDS011;13815;52.374;4.882;2022-08-25T01:45:36;3.97;;;0.32;;
26038;SDS011;13815;52.374;4.882;2022-08-25T01:48:04;0.60;;;0.60;;
26038;SDS011;13815;52.374;4.882;2022-08-25T01:50:30;6.68;;;0.73;;
26038;SDS011;13815;52.374;4.882;2022-08-25T01:55:29;0.10;;;0.08;;
26038;SDS011;13815;52.374;4.882;2022-08-25T01:57:55;3.20;;;0.50;;
26038;SDS011;13815;52.374;4.882;2022-08-25T02:00:22;0.03;;;0.03;;
26038;SDS011;13815;52.374;4.882;2022-08-25T02:02:48;1.60;;;0.35;;
26038;SDS011;13815;52.374;4.882;2022-08-25T02:05:14;5.03;;;0.73;;
26038;SDS011;13815;52.374;4.882;2022-08-25T02:07:40;0.43;;;0.32;;
26038;SDS011;13815;52.374;4.882;2022-08-25T02:10:07;0.50;;;0.32;;
26038;SDS011;13815;52.374;4.882;2022-08-25T02:12:35;5.45;;;0.85;;
26038;SDS011;13815;52.374;4.882;2022-08-25T02:15:00;4.82;;;0.98;;
26038;SDS011;13815;52.374;4.882;2022-08-25T02:17:26;5.18;;;0.50;;
26038;SDS011;13815;52.374;4.882;2022-08-25T02:19:52;5.40;;;0.50;;
26038;SDS011;13815;52.374;4.882;2022-08-25T02:22:19;1.25;;;0.17;;
26038;SDS011;13815;52.374;4.882;2022-08-25T02:24:45;4.95;;;0.70;;
26038;SDS011;13815;52.374;4.882;2022-08-25T02:27:10;2.70;;;1.05;;
26038;SDS011;13815;52.374;4.882;2022-08-25T02:29:36;0.35;;;0.17;;
26038;SDS011;13815;52.374;4.882;2022-08-25T02:32:01;4.90;;;0.80;;
26038;SDS011;13815;52.374;4.882;2022-08-25T02:34:27;0.55;;;0.35;;
26038;SDS011;13815;52.374;4.882;2022-08-25T02:36:52;0.40;;;0.30;;
26038;SDS011;13815;52.374;4.882;2022-08-25T02:39:18;5.78;;;0.60;;
26038;SDS011;13815;52.374;4.882;2022-08-25T02:41:43;0.10;;;0.10;;
26038;SDS011;13815;52.374;4.882;2022-08-25T02:44:09;5.35;;;0.95;;
26038;SDS011;13815;52.374;4.882;2022-08-25T02:46:34;10.15;;;1.02;;
26038;SDS011;13815;52.374;4.882;2022-08-25T02:49:01;0.60;;;0.45;;
26038;SDS011;13815;52.374;4.882;2022-08-25T02:51:26;5.85;;;1.10;;
26038;SDS011;13815;52.374;4.882;2022-08-25T02:53:54;5.07;;;0.60;;
26038;SDS011;13815;52.374;4.882;2022-08-25T02:56:21;0.52;;;0.30;;
26038;SDS011;13815;52.374;4.882;2022-08-25T02:58:47;5.78;;;0.63;;
26038;SDS011;13815;52.374;4.882;2022-08-25T03:01:12;0.90;;;0.43;;
26038;SDS011;13815;52.374;4.882;2022-08-25T03:03:39;0.30;;;0.20;;
26038;SDS011;13815;52.374;4.882;2022-08-25T03:06:09;6.78;;;0.63;;
26038;SDS011;13815;52.374;4.882;2022-08-25T03:08:36;0.70;;;0.55;;
26038;SDS011;13815;52.374;4.882;2022-08-25T03:11:02;3.13;;;0.85;;
26038;SDS011;13815;52.374;4.882;2022-08-25T03:13:28;5.70;;;0.32;;
26038;SDS011;13815;52.374;4.882;2022-08-25T03:15:53;0.30;;;0.25;;
26038;SDS011;13815;52.374;4.882;2022-08-25T03:18:19;5.30;;;0.45;;
26038;SDS011;13815;52.374;4.882;2022-08-25T03:20:44;7.07;;;0.82;;
26038;SDS011;13815;52.374;4.882;2022-08-25T03:23:10;0.40;;;0.40;;
26038;SDS011;13815;52.374;4.882;2022-08-25T03:25:37;0.28;;;0.25;;
26038;SDS011;13815;52.374;4.882;2022-08-25T03:28:22;0.47;;;0.20;;
26038;SDS011;13815;52.374;4.882;2022-08-25T03:30:48;0.13;;;0.10;;
26038;SDS011;13815;52.374;4.882;2022-08-25T03:33:13;5.25;;;0.75;;
26038;SDS011;13815;52.374;4.882;2022-08-25T03:35:39;0.68;;;0.47;;
26038;SDS011;13815;52.374;4.882;2022-08-25T03:38:04;7.32;;;0.73;;
26038;SDS011;13815;52.374;4.882;2022-08-25T03:40:29;0.50;;;0.25;;
26038;SDS011;13815;52.374;4.882;2022-08-25T03:42:55;4.07;;;0.63;;
26038;SDS011;13815;52.374;4.882;2022-08-25T03:45:21;5.30;;;0.38;;
26038;SDS011;13815;52.374;4.882;2022-08-25T03:47:47;1.15;;;1.00;;
26038;SDS011;13815;52.374;4.882;2022-08-25T03:50:13;5.22;;;0.80;;
26038;SDS011;13815;52.374;4.882;2022-08-25T03:52:40;0.30;;;0.20;;
26038;SDS011;13815;52.374;4.882;2022-08-25T03:55:06;0.60;;;0.60;;
26038;SDS011;13815;52.374;4.882;2022-08-25T03:57:33;8.27;;;0.73;;
26038;SDS011;13815;52.374;4.882;2022-08-25T04:00:02;3.80;;;0.47;;
26038;SDS011;13815;52.374;4.882;2022-08-25T04:02:32;0.90;;;0.15;;
26038;SDS011;13815;52.374;4.882;2022-08-25T04:04:57;0.10;;;0.10;;
26038;SDS011;13815;52.374;4.882;2022-08-25T04:07:23;4.28;;;0.52;;
26038;SDS011;13815;52.374;4.882;2022-08-25T04:09:48;3.40;;;0.43;;
26038;SDS011;13815;52.374;4.882;2022-08-25T04:12:14;0.00;;;0.00;;
26038;SDS011;13815;52.374;4.882;2022-08-25T04:14:39;0.00;;;0.00;;
26038;SDS011;13815;52.374;4.882;2022-08-25T04:17:05;0.50;;;0.50;;
26038;SDS011;13815;52.374;4.882;2022-08-25T04:19:30;0.40;;;0.40;;
26038;SDS011;13815;52.374;4.882;2022-08-25T04:21:55;0.20;;;0.20;;
26038;SDS011;13815;52.374;4.882;2022-08-25T04:24:21;0.20;;;0.10;;
26038;SDS011;13815;52.374;4.882;2022-08-25T04:26:47;0.22;;;0.15;;
26038;SDS011;13815;52.374;4.882;2022-08-25T04:29:15;0.30;;;0.30;;
26038;SDS011;13815;52.374;4.882;2022-08-25T04:31:43;0.20;;;0.20;;
26038;SDS011;13815;52.374;4.882;2022-08-25T04:34:10;4.38;;;0.68;;
26038;SDS011;13815;52.374;4.882;2022-08-25T04:36:37;0.10;;;0.10;;
26038;SDS011;13815;52.374;4.882;2022-08-25T04:39:02;0.45;;;0.45;;
26038;SDS011;13815;52.374;4.882;2022-08-25T04:41:27;3.72;;;0.68;;
26038;SDS011;13815;52.374;4.882;2022-08-25T04:43:55;0.35;;;0.35;;
26038;SDS011;13815;52.374;4.882;2022-08-25T04:46:22;4.25;;;0.57;;
26038;SDS011;13815;52.374;4.882;2022-08-25T04:48:49;0.32;;;0.32;;
26038;SDS011;13815;52.374;4.882;2022-08-25T04:51:17;0.50;;;0.50;;
26038;SDS011;13815;52.374;4.882;2022-08-25T04:53:44;0.63;;;0.63;;
26038;SDS011;13815;52.374;4.882;2022-08-25T04:56:11;3.53;;;0.80;;
26038;SDS011;13815;52.374;4.882;2022-08-25T04:58:38;0.52;;;0.52;;
26038;SDS011;13815;52.374;4.882;2022-08-25T05:01:05;5.25;;;1.00;;
26038;SDS011;13815;52.374;4.882;2022-08-25T05:03:31;10.45;;;1.52;;
26038;SDS011;13815;52.374;4.882;2022-08-25T05:05:57;0.80;;;0.80;;
26038;SDS011;13815;52.374;4.882;2022-08-25T05:08:22;2.70;;;1.63;;
26038;SDS011;13815;52.374;4.882;2022-08-25T05:10:48;16.75;;;2.28;;
26038;SDS011;13815;52.374;4.882;2022-08-25T05:13:14;7.72;;;2.35;;
26038;SDS011;13815;52.374;4.882;2022-08-25T05:15:39;3.33;;;2.30;;
26038;SDS011;13815;52.374;4.882;2022-08-25T05:18:17;2.63;;;2.53;;
26038;SDS011;13815;52.374;4.882;2022-08-25T05:20:44;6.68;;;3.40;;
26038;SDS011;13815;52.374;4.882;2022-08-25T05:23:09;12.02;;;5.38;;
26038;SDS011;13815;52.374;4.882;2022-08-25T05:25:35;4.20;;;4.10;;
26038;SDS011;13815;52.374;4.882;2022-08-25T05:28:00;5.45;;;5.25;;
26038;SDS011;13815;52.374;4.882;2022-08-25T05:30:26;8.50;;;6.20;;
26038;SDS011;13815;52.374;4.882;2022-08-25T05:32:52;5.88;;;5.68;;
26038;SDS011;13815;52.374;4.882;2022-08-25T05:35:17;7.50;;;7.10;;
26038;SDS011;13815;52.374;4.882;2022-08-25T05:37:44;8.02;;;7.50;;
26038;SDS011;13815;52.374;4.882;2022-08-25T05:40:09;10.05;;;9.20;;
26038;SDS011;13815;52.374;4.882;2022-08-25T05:42:34;9.02;;;8.63;;
26038;SDS011;13815;52.374;4.882;2022-08-25T05:45:01;9.15;;;8.85;;
26038;SDS011;13815;52.374;4.882;2022-08-25T05:47:27;9.85;;;9.55;;
26038;SDS011;13815;52.374;4.882;2022-08-25T05:49:52;11.23;;;10.40;;
26038;SDS011;13815;52.374;4.882;2022-08-25T05:52:18;10.20;;;9.90;;
26038;SDS011;13815;52.374;4.882;2022-08-25T05:54:44;11.95;;;11.07;;
26038;SDS011;13815;52.374;4.882;2022-08-25T05:57:09;11.30;;;10.90;;
26038;SDS011;13815;52.374;4.882;2022-08-25T05:59:34;12.25;;;11.85;;
26038;SDS011;13815;52.374;4.882;2022-08-25T06:02:00;12.65;;;11.95;;
26038;SDS011;13815;52.374;4.882;2022-08-25T06:04:44;12.40;;;12.00;;
26038;SDS011;13815;52.374;4.882;2022-08-25T06:07:09;12.90;;;12.40;;
26038;SDS011;13815;52.374;4.882;2022-08-25T06:09:38;13.10;;;12.60;;
26038;SDS011;13815;52.374;4.882;2022-08-25T06:12:04;14.18;;;13.25;;
26038;SDS011;13815;52.374;4.882;2022-08-25T06:14:31;13.77;;;13.13;;
26038;SDS011;13815;52.374;4.882;2022-08-25T06:16:57;13.75;;;13.25;;
26038;SDS011;13815;52.374;4.882;2022-08-25T06:19:24;13.95;;;13.45;;
26038;SDS011;13815;52.374;4.882;2022-08-25T06:21:54;14.13;;;13.52;;
26038;SDS011;13815;52.374;4.882;2022-08-25T06:24:19;14.88;;;14.27;;
26038;SDS011;13815;52.374;4.882;2022-08-25T06:26:45;15.25;;;14.55;;
26038;SDS011;13815;52.374;4.882;2022-08-25T06:29:11;16.58;;;15.00;;
26038;SDS011;13815;52.374;4.882;2022-08-25T06:31:38;16.48;;;15.18;;
26038;SDS011;13815;52.374;4.882;2022-08-25T06:34:03;16.02;;;15.23;;
26038;SDS011;13815;52.374;4.882;2022-08-25T06:36:30;17.05;;;16.05;;
26038;SDS011;13815;52.374;4.882;2022-08-25T06:38:55;17.38;;;16.27;;
26038;SDS011;13815;52.374;4.882;2022-08-25T06:41:20;19.27;;;17.33;;
26038;SDS011;13815;52.374;4.882;2022-08-25T06:43:46;19.77;;;18.05;;
26038;SDS011;13815;52.374;4.882;2022-08-25T06:46:13;20.35;;;18.58;;
26038;SDS011;13815;52.374;4.882;2022-08-25T06:48:39;19.90;;;18.50;;
26038;SDS011;13815;52.374;4.882;2022-08-25T06:51:09;19.77;;;18.25;;
26038;SDS011;13815;52.374;4.882;2022-08-25T06:53:37;19.85;;;18.33;;
26038;SDS011;13815;52.374;4.882;2022-08-25T06:56:03;23.85;;;19.50;;
26038;SDS011;13815;52.374;4.882;2022-08-25T06:58:29;20.50;;;18.70;;
26038;SDS011;13815;52.374;4.882;2022-08-25T07:00:54;21.33;;;18.65;;
26038;SDS011;13815;52.374;4.882;2022-08-25T07:03:20;20.40;;;18.60;;
26038;SDS011;13815;52.374;4.882;2022-08-25T07:05:52;23.02;;;20.00;;
26038;SDS011;13815;52.374;4.882;2022-08-25T07:08:19;29.73;;;22.10;;
26038;SDS011;13815;52.374;4.882;2022-08-25T07:10:45;24.17;;;20.95;;
26038;SDS011;13815;52.374;4.882;2022-08-25T07:13:10;25.50;;;22.90;;
26038;SDS011;13815;52.374;4.882;2022-08-25T07:15:39;32.40;;;24.15;;
26038;SDS011;13815;52.374;4.882;2022-08-25T07:18:06;33.50;;;24.88;;
26038;SDS011;13815;52.374;4.882;2022-08-25T07:20:35;29.52;;;25.20;;
26038;SDS011;13815;52.374;4.882;2022-08-25T07:23:01;28.80;;;24.52;;
26038;SDS011;13815;52.374;4.882;2022-08-25T07:25:27;29.95;;;24.90;;
26038;SDS011;13815;52.374;4.882;2022-08-25T07:27:53;35.60;;;24.80;;
26038;SDS011;13815;52.374;4.882;2022-08-25T07:30:18;36.83;;;25.88;;
26038;SDS011;13815;52.374;4.882;2022-08-25T07:32:47;30.73;;;25.15;;
26038;SDS011;13815;52.374;4.882;2022-08-25T07:35:12;38.63;;;26.40;;
26038;SDS011;13815;52.374;4.882;2022-08-25T07:37:48;35.38;;;25.55;;
26038;SDS011;13815;52.374;4.882;2022-08-25T07:40:19;30.65;;;24.10;;
26038;SDS011;13815;52.374;4.882;2022-08-25T07:42:47;34.40;;;24.98;;
26038;SDS011;13815;52.374;4.882;2022-08-25T07:45:14;31.55;;;24.58;;
26038;SDS011;13815;52.374;4.882;2022-08-25T07:47:40;37.83;;;24.73;;
26038;SDS011;13815;52.374;4.882;2022-08-25T07:50:06;35.38;;;25.65;;
26038;SDS011;13815;52.374;4.882;2022-08-25T07:52:33;33.55;;;24.70;;
26038;SDS011;13815;52.374;4.882;2022-08-25T07:54:58;38.58;;;24.30;;
26038;SDS011;13815;52.374;4.882;2022-08-25T07:57:24;35.83;;;24.88;;
26038;SDS011;13815;52.374;4.882;2022-08-25T07:59:50;30.60;;;24.33;;
26038;SDS011;13815;52.374;4.882;2022-08-25T08:02:16;30.58;;;24.35;;
26038;SDS011;13815;52.374;4.882;2022-08-25T08:04:42;36.38;;;25.63;;
26038;SDS011;13815;52.374;4.882;2022-08-25T08:07:08;34.47;;;24.25;;
26038;SDS011;13815;52.374;4.882;2022-08-25T08:09:33;32.42;;;24.75;;
26038;SDS011;13815;52.374;4.882;2022-08-25T08:11:58;35.92;;;24.77;;
26038;SDS011;13815;52.374;4.882;2022-08-25T08:14:24;40.83;;;25.50;;
26038;SDS011;13815;52.374;4.882;2022-08-25T08:16:49;34.35;;;26.17;;
26038;SDS011;13815;52.374;4.882;2022-08-25T08:19:15;36.92;;;25.70;;
26038;SDS011;13815;52.374;4.882;2022-08-25T08:21:41;32.95;;;24.92;;
26038;SDS011;13815;52.374;4.882;2022-08-25T08:24:07;33.03;;;24.65;;
26038;SDS011;13815;52.374;4.882;2022-08-25T08:26:32;34.13;;;25.20;;
26038;SDS011;13815;52.374;4.882;2022-08-25T08:28:58;42.42;;;26.25;;
26038;SDS011;13815;52.374;4.882;2022-08-25T08:31:24;38.65;;;26.23;;
26038;SDS011;13815;52.374;4.882;2022-08-25T08:33:51;34.15;;;25.58;;
26038;SDS011;13815;52.374;4.882;2022-08-25T08:36:17;33.72;;;25.35;;
26038;SDS011;13815;52.374;4.882;2022-08-25T08:38:43;39.08;;;26.10;;
26038;SDS011;13815;52.374;4.882;2022-08-25T08:44:14;32.97;;;24.70;;
26038;SDS011;13815;52.374;4.882;2022-08-25T08:46:52;32.90;;;24.98;;
26038;SDS011;13815;52.374;4.882;2022-08-25T08:49:26;31.90;;;24.45;;
26038;SDS011;13815;52.374;4.882;2022-08-25T08:51:56;33.25;;;24.88;;
26038;SDS011;13815;52.374;4.882;2022-08-25T08:54:23;37.30;;;25.05;;
26038;SDS011;13815;52.374;4.882;2022-08-25T08:56:53;41.10;;;25.35;;
26038;SDS011;13815;52.374;4.882;2022-08-25T08:59:23;38.03;;;24.63;;
26038;SDS011;13815;52.374;4.882;2022-08-25T09:01:53;37.25;;;24.98;;
26038;SDS011;13815;52.374;4.882;2022-08-25T09:07:21;41.53;;;25.85;;
26038;SDS011;13815;52.374;4.882;2022-08-25T09:09:51;37.28;;;25.30;;
26038;SDS011;13815;52.374;4.882;2022-08-25T09:12:33;38.65;;;25.77;;
26038;SDS011;13815;52.374;4.882;2022-08-25T09:20:37;44.85;;;26.55;;
26038;SDS011;13815;52.374;4.882;2022-08-25T09:23:09;37.55;;;26.25;;
26038;SDS011;13815;52.374;4.882;2022-08-25T09:25:50;44.97;;;27.02;;
26038;SDS011;13815;52.374;4.882;2022-08-25T09:28:31;44.03;;;26.88;;
26038;SDS011;13815;52.374;4.882;2022-08-25T09:31:15;47.70;;;27.80;;
26038;SDS011;13815;52.374;4.882;2022-08-25T09:33:41;38.63;;;26.40;;
26038;SDS011;13815;52.374;4.882;2022-08-25T09:39:15;55.38;;;29.60;;
26038;SDS011;13815;52.374;4.882;2022-08-25T09:41:42;40.83;;;27.40;;
26038;SDS011;13815;52.374;4.882;2022-08-25T09:44:23;46.63;;;27.88;;
26038;SDS011;13815;52.374;4.882;2022-08-25T09:46:56;42.08;;;27.70;;
26038;SDS011;13815;52.374;4.882;2022-08-25T09:49:40;50.75;;;28.23;;
26038;SDS011;13815;52.374;4.882;2022-08-25T09:59:54;41.20;;;26.70;;
26038;SDS011;13815;52.374;4.882;2022-08-25T10:02:24;39.90;;;26.23;;
26038;SDS011;13815;52.374;4.882;2022-08-25T10:07:22;42.60;;;27.10;;
26038;SDS011;13815;52.374;4.882;2022-08-25T10:09:51;46.22;;;26.83;;
26038;SDS011;13815;52.374;4.882;2022-08-25T10:12:23;42.63;;;27.88;;
26038;SDS011;13815;52.374;4.882;2022-08-25T10:15:14;46.95;;;27.48;;
26038;SDS011;13815;52.374;4.882;2022-08-25T10:17:40;42.78;;;27.42;;
26038;SDS011;13815;52.374;4.882;2022-08-25T10:22:34;46.28;;;28.95;;
26038;SDS011;13815;52.374;4.882;2022-08-25T10:25:00;43.30;;;27.17;;
26038;SDS011;13815;52.374;4.882;2022-08-25T10:27:28;51.95;;;29.45;;
26038;SDS011;13815;52.374;4.882;2022-08-25T10:32:32;48.08;;;27.77;;
26038;SDS011;13815;52.374;4.882;2022-08-25T10:35:01;54.20;;;28.52;;
26038;SDS011;13815;52.374;4.882;2022-08-25T10:40:23;43.53;;;27.52;;
26038;SDS011;13815;52.374;4.882;2022-08-25T10:43:16;43.75;;;28.05;;
26038;SDS011;13815;52.374;4.882;2022-08-25T10:48:43;44.67;;;28.83;;
26038;SDS011;13815;52.374;4.882;2022-08-25T11:05:11;57.53;;;28.83;;
26038;SDS011;13815;52.374;4.882;2022-08-25T11:07:46;47.90;;;27.98;;
26038;SDS011;13815;52.374;4.882;2022-08-25T11:10:15;42.30;;;27.02;;
26038;SDS011;13815;52.374;4.882;2022-08-25T11:12:52;43.67;;;27.88;;
26038;SDS011;13815;52.374;4.882;2022-08-25T11:15:25;50.25;;;28.13;;
26038;SDS011;13815;52.374;4.882;2022-08-25T11:17:57;42.80;;;27.98;;
26038;SDS011;13815;52.374;4.882;2022-08-25T11:20:27;39.03;;;25.52;;
26038;SDS011;13815;52.374;4.882;2022-08-25T11:25:52;46.55;;;27.23;;
26038;SDS011;13815;52.374;4.882;2022-08-25T11:31:17;39.83;;;26.50;;
26038;SDS011;13815;52.374;4.882;2022-08-25T11:33:44;39.08;;;26.08;;
26038;SDS011;13815;52.374;4.882;2022-08-25T11:38:45;44.03;;;26.25;;
26038;SDS011;13815;52.374;4.882;2022-08-25T11:44:15;45.85;;;26.33;;
26038;SDS011;13815;52.374;4.882;2022-08-25T11:49:52;38.95;;;26.55;;
26038;SDS011;13815;52.374;4.882;2022-08-25T11:57:42;46.85;;;26.48;;
26038;SDS011;13815;52.374;4.882;2022-08-25T12:02:53;41.88;;;27.85;;
26038;SDS011;13815;52.374;4.882;2022-08-25T12:13:24;40.92;;;27.15;;
26038;SDS011;13815;52.374;4.882;2022-08-25T12:16:05;42.25;;;26.85;;
26038;SDS011;13815;52.374;4.882;2022-08-25T12:23:26;40.45;;;26.17;;
26038;SDS011;13815;52.374;4.882;2022-08-25T12:25:51;37.22;;;25.90;;
26038;SDS011;13815;52.374;4.882;2022-08-25T12:31:02;37.58;;;26.00;;
26038;SDS011;13815;52.374;4.882;2022-08-25T12:36:07;38.08;;;26.83;;
26038;SDS011;13815;52.374;4.882;2022-08-25T12:38:44;39.53;;;27.55;;
26038;SDS011;13815;52.374;4.882;2022-08-25T12:41:15;39.47;;;27.70;;
26038;SDS011;13815;52.374;4.882;2022-08-25T12:43:46;41.75;;;27.63;;
26038;SDS011;13815;52.374;4.882;2022-08-25T12:48:56;38.72;;;27.38;;
26038;SDS011;13815;52.374;4.882;2022-08-25T12:52:09;47.60;;;27.65;;
26038;SDS011;13815;52.374;4.882;2022-08-25T12:56:46;38.15;;;26.48;;
26038;SDS011;13815;52.374;4.882;2022-08-25T12:59:18;38.08;;;26.17;;
26038;SDS011;13815;52.374;4.882;2022-08-25T13:01:53;37.80;;;25.55;;
26038;SDS011;13815;52.374;4.882;2022-08-25T13:07:31;37.92;;;25.20;;
26038;SDS011;13815;52.374;4.882;2022-08-25T13:13:06;41.65;;;25.83;;
26038;SDS011;13815;52.374;4.882;2022-08-25T13:15:57;40.88;;;25.25;;
26038;SDS011;13815;52.374;4.882;2022-08-25T13:18:28;40.35;;;24.92;;
26038;SDS011;13815;52.374;4.882;2022-08-25T13:21:38;36.97;;;25.60;;
26038;SDS011;13815;52.374;4.882;2022-08-25T13:23:51;39.75;;;26.38;;
26038;SDS011;13815;52.374;4.882;2022-08-25T13:26:25;38.92;;;26.02;;
26038;SDS011;13815;52.374;4.882;2022-08-25T13:29:35;39.45;;;26.50;;
26038;SDS011;13815;52.374;4.882;2022-08-25T13:31:51;47.25;;;27.00;;
26038;SDS011;13815;52.374;4.882;2022-08-25T13:34:20;38.80;;;26.10;;
26038;SDS011;13815;52.374;4.882;2022-08-25T13:36:47;38.75;;;25.55;;
26038;SDS011;13815;52.374;4.882;2022-08-25T13:39:32;39.90;;;25.75;;
26038;SDS011;13815;52.374;4.882;2022-08-25T13:42:00;46.63;;;26.92;;
26038;SDS011;13815;52.374;4.882;2022-08-25T13:44:29;39.20;;;25.98;;
26038;SDS011;13815;52.374;4.882;2022-08-25T13:49:35;38.45;;;25.77;;
26038;SDS011;13815;52.374;4.882;2022-08-25T13:52:02;43.50;;;26.67;;
26038;SDS011;13815;52.374;4.882;2022-08-25T13:54:33;42.55;;;26.45;;
26038;SDS011;13815;52.374;4.882;2022-08-25T13:57:10;39.22;;;25.83;;
26038;SDS011;13815;52.374;4.882;2022-08-25T13:59:39;42.90;;;26.60;;
26038;SDS011;13815;52.374;4.882;2022-08-25T14:02:07;38.38;;;25.98;;
26038;SDS011;13815;52.374;4.882;2022-08-25T14:07:11;40.00;;;27.00;;
26038;SDS011;13815;52.374;4.882;2022-08-25T14:15:06;44.03;;;26.45;;
26038;SDS011;13815;52.374;4.882;2022-08-25T14:17:45;37.45;;;25.48;;
26038;SDS011;13815;52.374;4.882;2022-08-25T14:20:15;42.22;;;25.75;;
26038;SDS011;13815;52.374;4.882;2022-08-25T14:22:43;37.83;;;25.25;;
26038;SDS011;13815;52.374;4.882;2022-08-25T14:25:08;42.92;;;25.65;;
26038;SDS011;13815;52.374;4.882;2022-08-25T14:27:34;41.95;;;25.75;;
26038;SDS011;13815;52.374;4.882;2022-08-25T14:29:59;38.42;;;25.58;;
26038;SDS011;13815;52.374;4.882;2022-08-25T14:32:24;41.50;;;26.13;;
26038;SDS011;13815;52.374;4.882;2022-08-25T14:34:50;42.22;;;26.02;;
26038;SDS011;13815;52.374;4.882;2022-08-25T14:37:17;37.45;;;25.05;;
26038;SDS011;13815;52.374;4.882;2022-08-25T14:39:44;41.75;;;26.00;;
26038;SDS011;13815;52.374;4.882;2022-08-25T14:42:09;42.63;;;26.13;;
26038;SDS011;13815;52.374;4.882;2022-08-25T14:44:35;41.38;;;26.58;;
26038;SDS011;13815;52.374;4.882;2022-08-25T14:47:02;42.58;;;25.92;;
26038;SDS011;13815;52.374;4.882;2022-08-25T14:49:29;39.88;;;26.70;;
26038;SDS011;13815;52.374;4.882;2022-08-25T14:52:08;47.20;;;26.75;;
26038;SDS011;13815;52.374;4.882;2022-08-25T14:54:39;38.07;;;25.60;;
26038;SDS011;13815;52.374;4.882;2022-08-25T14:57:04;42.90;;;26.67;;
26038;SDS011;13815;52.374;4.882;2022-08-25T14:59:30;38.47;;;26.38;;
26038;SDS011;13815;52.374;4.882;2022-08-25T15:01:56;39.33;;;26.90;;
26038;SDS011;13815;52.374;4.882;2022-08-25T15:04:23;39.30;;;26.65;;
26038;SDS011;13815;52.374;4.882;2022-08-25T15:06:54;39.05;;;25.75;;
26038;SDS011;13815;52.374;4.882;2022-08-25T15:09:20;37.50;;;25.40;;
26038;SDS011;13815;52.374;4.882;2022-08-25T15:11:50;40.45;;;25.73;;
26038;SDS011;13815;52.374;4.882;2022-08-25T15:14:19;37.72;;;25.30;;
26038;SDS011;13815;52.374;4.882;2022-08-25T15:16:50;41.70;;;25.90;;
26038;SDS011;13815;52.374;4.882;2022-08-25T15:19:18;44.88;;;25.63;;
26038;SDS011;13815;52.374;4.882;2022-08-25T15:21:45;36.88;;;24.85;;
26038;SDS011;13815;52.374;4.882;2022-08-25T15:24:11;36.70;;;24.88;;
26038;SDS011;13815;52.374;4.882;2022-08-25T15:26:39;39.95;;;25.30;;
26038;SDS011;13815;52.374;4.882;2022-08-25T15:29:27;40.58;;;25.33;;
26038;SDS011;13815;52.374;4.882;2022-08-25T15:31:54;36.92;;;24.83;;
26038;SDS011;13815;52.374;4.882;2022-08-25T15:34:20;44.15;;;26.38;;
26038;SDS011;13815;52.374;4.882;2022-08-25T15:36:45;42.05;;;25.70;;
26038;SDS011;13815;52.374;4.882;2022-08-25T15:39:11;37.22;;;25.10;;
26038;SDS011;13815;52.374;4.882;2022-08-25T15:41:36;40.83;;;25.33;;
26038;SDS011;13815;52.374;4.882;2022-08-25T15:44:03;41.80;;;25.20;;
26038;SDS011;13815;52.374;4.882;2022-08-25T15:46:30;39.47;;;25.35;;
26038;SDS011;13815;52.374;4.882;2022-08-25T15:48:56;36.65;;;24.92;;
26038;SDS011;13815;52.374;4.882;2022-08-25T15:51:23;41.03;;;25.30;;
26038;SDS011;13815;52.374;4.882;2022-08-25T15:53:49;36.72;;;24.45;;
26038;SDS011;13815;52.374;4.882;2022-08-25T15:56:14;36.13;;;24.33;;
26038;SDS011;13815;52.374;4.882;2022-08-25T15:58:43;40.10;;;24.80;;
26038;SDS011;13815;52.374;4.882;2022-08-25T16:01:17;38.60;;;24.63;;
26038;SDS011;13815;52.374;4.882;2022-08-25T16:03:43;50.30;;;25.90;;
26038;SDS011;13815;52.374;4.882;2022-08-25T16:06:09;38.47;;;24.88;;
26038;SDS011;13815;52.374;4.882;2022-08-25T16:08:35;38.83;;;25.75;;
26038;SDS011;13815;52.374;4.882;2022-08-25T16:11:01;47.65;;;25.20;;
26038;SDS011;13815;52.374;4.882;2022-08-25T16:13:27;41.53;;;26.55;;
26038;SDS011;13815;52.374;4.882;2022-08-25T16:15:53;36.08;;;24.63;;
26038;SDS011;13815;52.374;4.882;2022-08-25T16:18:18;37.70;;;25.23;;
26038;SDS011;13815;52.374;4.882;2022-08-25T16:20:45;41.53;;;25.95;;
26038;SDS011;13815;52.374;4.882;2022-08-25T16:23:11;37.72;;;26.60;;
26038;SDS011;13815;52.374;4.882;2022-08-25T16:25:40;40.05;;;25.92;;
26038;SDS011;13815;52.374;4.882;2022-08-25T16:28:07;39.75;;;26.02;;
26038;SDS011;13815;52.374;4.882;2022-08-25T16:30:34;36.47;;;24.20;;
26038;SDS011;13815;52.374;4.882;2022-08-25T16:32:59;37.92;;;24.30;;
26038;SDS011;13815;52.374;4.882;2022-08-25T16:35:25;35.22;;;23.85;;
26038;SDS011;13815;52.374;4.882;2022-08-25T16:37:51;42.85;;;26.02;;
26038;SDS011;13815;52.374;4.882;2022-08-25T16:40:17;35.58;;;25.10;;